sensor_id;sensor_type;location;lat;lon;timestamp;P1;durP1;ratioP1;P2;durP2;ratioP2
6282;SDS011;3174;53.486;9.568;2023-06-24T00:00:11;4.90;;;3.20;;
6282;SDS011;3174;53.486;9.568;2023-06-24T00:02:40;5.97;;;4.37;;
6282;SDS011;3174;53.486;9.568;2023-06-24T00:05:10;8.10;;;5.30;;
6282;SDS011;3174;53.486;9.568;2023-06-24T00:07:38;6.23;;;4.60;;
6282;SDS011;3174;53.486;9.568;2023-06-24T00:10:11;9.40;;;5.07;;
6282;SDS011;3174;53.486;9.568;2023-06-24T00:12:43;5.10;;;3.47;;
6282;SDS011;3174;53.486;9.568;2023-06-24T00:15:12;9.70;;;5.47;;
6282;SDS011;3174;53.486;9.568;2023-06-24T00:17:40;4.27;;;3.10;;
6282;SDS011;3174;53.486;9.568;2023-06-24T00:20:08;12.00;;;6.00;;
6282;SDS011;3174;53.486;9.568;2023-06-24T00:22:40;5.63;;;3.63;;
6282;SDS011;3174;53.486;9.568;2023-06-24T00:25:11;5.13;;;3.70;;
6282;SDS011;3174;53.486;9.568;2023-06-24T00:27:39;5.03;;;3.67;;
6282;SDS011;3174;53.486;9.568;2023-06-24T00:30:10;5.87;;;4.10;;
6282;SDS011;3174;53.486;9.568;2023-06-24T00:32:38;10.00;;;5.47;;
6282;SDS011;3174;53.486;9.568;2023-06-24T00:35:07;9.03;;;6.10;;
6282;SDS011;3174;53.486;9.568;2023-06-24T00:37:35;6.50;;;3.90;;
6282;SDS011;3174;53.486;9.568;2023-06-24T00:40:04;5.17;;;3.77;;
6282;SDS011;3174;53.486;9.568;2023-06-24T00:42:34;6.43;;;4.53;;
6282;SDS011;3174;53.486;9.568;2023-06-24T00:45:02;4.73;;;3.50;;
6282;SDS011;3174;53.486;9.568;2023-06-24T00:47:32;5.07;;;3.87;;
6282;SDS011;3174;53.486;9.568;2023-06-24T00:50:01;5.40;;;3.73;;
6282;SDS011;3174;53.486;9.568;2023-06-24T00:52:30;4.57;;;3.10;;
6282;SDS011;3174;53.486;9.568;2023-06-24T00:54:59;4.67;;;3.80;;
6282;SDS011;3174;53.486;9.568;2023-06-24T00:57:29;5.00;;;3.60;;
6282;SDS011;3174;53.486;9.568;2023-06-24T00:59:57;9.87;;;5.47;;
6282;SDS011;3174;53.486;9.568;2023-06-24T01:02:26;5.63;;;4.03;;
6282;SDS011;3174;53.486;9.568;2023-06-24T01:04:56;6.80;;;4.13;;
6282;SDS011;3174;53.486;9.568;2023-06-24T01:07:24;6.47;;;4.43;;
6282;SDS011;3174;53.486;9.568;2023-06-24T01:09:52;5.83;;;3.37;;
6282;SDS011;3174;53.486;9.568;2023-06-24T01:12:21;4.57;;;3.90;;
6282;SDS011;3174;53.486;9.568;2023-06-24T01:14:49;6.10;;;4.07;;
6282;SDS011;3174;53.486;9.568;2023-06-24T01:17:19;6.30;;;3.70;;
6282;SDS011;3174;53.486;9.568;2023-06-24T01:19:53;5.43;;;3.97;;
6282;SDS011;3174;53.486;9.568;2023-06-24T01:25:20;4.23;;;3.33;;
6282;SDS011;3174;53.486;9.568;2023-06-24T01:28:05;6.20;;;4.27;;
6282;SDS011;3174;53.486;9.568;2023-06-24T01:30:49;5.80;;;3.93;;
6282;SDS011;3174;53.486;9.568;2023-06-24T01:33:36;7.60;;;3.50;;
6282;SDS011;3174;53.486;9.568;2023-06-24T01:36:08;8.50;;;5.67;;
6282;SDS011;3174;53.486;9.568;2023-06-24T01:38:41;7.90;;;5.07;;
6282;SDS011;3174;53.486;9.568;2023-06-24T01:41:11;7.43;;;5.40;;
6282;SDS011;3174;53.486;9.568;2023-06-24T01:43:41;11.27;;;6.73;;
6282;SDS011;3174;53.486;9.568;2023-06-24T01:46:10;4.60;;;3.47;;
6282;SDS011;3174;53.486;9.568;2023-06-24T01:48:41;9.87;;;6.13;;
6282;SDS011;3174;53.486;9.568;2023-06-24T01:51:10;5.93;;;4.33;;
6282;SDS011;3174;53.486;9.568;2023-06-24T01:53:41;9.97;;;5.77;;
6282;SDS011;3174;53.486;9.568;2023-06-24T01:56:11;5.37;;;4.03;;
6282;SDS011;3174;53.486;9.568;2023-06-24T01:58:41;8.67;;;4.83;;
6282;SDS011;3174;53.486;9.568;2023-06-24T02:01:10;4.97;;;3.40;;
6282;SDS011;3174;53.486;9.568;2023-06-24T02:03:40;6.63;;;3.90;;
6282;SDS011;3174;53.486;9.568;2023-06-24T02:06:09;4.90;;;3.70;;
6282;SDS011;3174;53.486;9.568;2023-06-24T02:08:37;9.40;;;5.20;;
6282;SDS011;3174;53.486;9.568;2023-06-24T02:11:06;4.50;;;3.70;;
6282;SDS011;3174;53.486;9.568;2023-06-24T02:13:35;6.43;;;4.00;;
6282;SDS011;3174;53.486;9.568;2023-06-24T02:16:04;5.20;;;3.40;;
6282;SDS011;3174;53.486;9.568;2023-06-24T02:18:35;4.73;;;2.90;;
6282;SDS011;3174;53.486;9.568;2023-06-24T02:21:05;4.37;;;3.37;;
6282;SDS011;3174;53.486;9.568;2023-06-24T02:23:34;6.17;;;4.57;;
6282;SDS011;3174;53.486;9.568;2023-06-24T02:26:02;6.07;;;4.97;;
6282;SDS011;3174;53.486;9.568;2023-06-24T02:28:32;5.37;;;3.90;;
6282;SDS011;3174;53.486;9.568;2023-06-24T02:31:00;5.17;;;3.70;;
6282;SDS011;3174;53.486;9.568;2023-06-24T02:33:28;6.40;;;4.00;;
6282;SDS011;3174;53.486;9.568;2023-06-24T02:35:56;5.17;;;3.77;;
6282;SDS011;3174;53.486;9.568;2023-06-24T02:38:26;5.17;;;3.63;;
6282;SDS011;3174;53.486;9.568;2023-06-24T02:40:54;7.83;;;5.20;;
6282;SDS011;3174;53.486;9.568;2023-06-24T02:43:22;5.07;;;3.90;;
6282;SDS011;3174;53.486;9.568;2023-06-24T02:45:50;5.07;;;3.83;;
6282;SDS011;3174;53.486;9.568;2023-06-24T02:48:19;5.53;;;3.83;;
6282;SDS011;3174;53.486;9.568;2023-06-24T02:50:48;6.20;;;3.90;;
6282;SDS011;3174;53.486;9.568;2023-06-24T02:53:16;6.83;;;4.90;;
6282;SDS011;3174;53.486;9.568;2023-06-24T02:55:46;9.57;;;3.90;;
6282;SDS011;3174;53.486;9.568;2023-06-24T02:58:14;10.20;;;6.30;;
6282;SDS011;3174;53.486;9.568;2023-06-24T03:00:42;5.20;;;3.87;;
6282;SDS011;3174;53.486;9.568;2023-06-24T03:03:10;4.53;;;3.77;;
6282;SDS011;3174;53.486;9.568;2023-06-24T03:05:38;3.57;;;3.10;;
6282;SDS011;3174;53.486;9.568;2023-06-24T03:08:07;4.73;;;3.63;;
6282;SDS011;3174;53.486;9.568;2023-06-24T03:10:36;5.37;;;3.70;;
6282;SDS011;3174;53.486;9.568;2023-06-24T03:13:05;4.77;;;3.60;;
6282;SDS011;3174;53.486;9.568;2023-06-24T03:15:33;6.73;;;3.50;;
6282;SDS011;3174;53.486;9.568;2023-06-24T03:18:02;5.20;;;3.70;;
6282;SDS011;3174;53.486;9.568;2023-06-24T03:20:30;5.13;;;3.80;;
6282;SDS011;3174;53.486;9.568;2023-06-24T03:23:05;4.80;;;3.50;;
6282;SDS011;3174;53.486;9.568;2023-06-24T03:25:33;5.43;;;3.67;;
6282;SDS011;3174;53.486;9.568;2023-06-24T03:28:01;5.07;;;3.87;;
6282;SDS011;3174;53.486;9.568;2023-06-24T03:30:35;10.77;;;7.03;;
6282;SDS011;3174;53.486;9.568;2023-06-24T03:33:03;4.67;;;3.47;;
6282;SDS011;3174;53.486;9.568;2023-06-24T03:35:32;8.10;;;5.13;;
6282;SDS011;3174;53.486;9.568;2023-06-24T03:38:01;4.87;;;3.50;;
6282;SDS011;3174;53.486;9.568;2023-06-24T03:40:29;8.07;;;5.10;;
6282;SDS011;3174;53.486;9.568;2023-06-24T03:42:58;7.07;;;5.33;;
6282;SDS011;3174;53.486;9.568;2023-06-24T03:45:26;9.07;;;5.80;;
6282;SDS011;3174;53.486;9.568;2023-06-24T03:47:55;5.10;;;4.03;;
6282;SDS011;3174;53.486;9.568;2023-06-24T03:50:23;4.63;;;3.43;;
6282;SDS011;3174;53.486;9.568;2023-06-24T03:52:51;8.23;;;3.63;;
6282;SDS011;3174;53.486;9.568;2023-06-24T03:55:19;7.50;;;5.60;;
6282;SDS011;3174;53.486;9.568;2023-06-24T03:57:47;4.17;;;3.30;;
6282;SDS011;3174;53.486;9.568;2023-06-24T04:00:15;4.00;;;3.10;;
6282;SDS011;3174;53.486;9.568;2023-06-24T04:02:47;5.23;;;3.63;;
6282;SDS011;3174;53.486;9.568;2023-06-24T04:05:16;5.53;;;3.80;;
6282;SDS011;3174;53.486;9.568;2023-06-24T04:07:44;5.37;;;3.67;;
6282;SDS011;3174;53.486;9.568;2023-06-24T04:10:13;6.97;;;4.13;;
6282;SDS011;3174;53.486;9.568;2023-06-24T04:12:41;5.27;;;3.37;;
6282;SDS011;3174;53.486;9.568;2023-06-24T04:15:10;4.67;;;3.43;;
6282;SDS011;3174;53.486;9.568;2023-06-24T04:17:38;4.77;;;3.80;;
6282;SDS011;3174;53.486;9.568;2023-06-24T04:20:07;4.40;;;3.43;;
6282;SDS011;3174;53.486;9.568;2023-06-24T04:22:37;5.37;;;3.83;;
6282;SDS011;3174;53.486;9.568;2023-06-24T04:25:08;4.67;;;3.47;;
6282;SDS011;3174;53.486;9.568;2023-06-24T04:27:36;4.93;;;3.90;;
6282;SDS011;3174;53.486;9.568;2023-06-24T04:30:05;5.00;;;3.93;;
6282;SDS011;3174;53.486;9.568;2023-06-24T04:32:33;4.67;;;3.33;;
6282;SDS011;3174;53.486;9.568;2023-06-24T04:35:01;5.30;;;3.37;;
6282;SDS011;3174;53.486;9.568;2023-06-24T04:37:30;10.00;;;4.83;;
6282;SDS011;3174;53.486;9.568;2023-06-24T04:40:00;11.53;;;6.10;;
6282;SDS011;3174;53.486;9.568;2023-06-24T04:42:28;9.90;;;5.43;;
6282;SDS011;3174;53.486;9.568;2023-06-24T04:44:56;7.60;;;4.87;;
6282;SDS011;3174;53.486;9.568;2023-06-24T04:47:24;6.73;;;4.60;;
6282;SDS011;3174;53.486;9.568;2023-06-24T04:49:52;6.93;;;4.93;;
6282;SDS011;3174;53.486;9.568;2023-06-24T04:52:20;11.80;;;7.33;;
6282;SDS011;3174;53.486;9.568;2023-06-24T04:54:49;5.70;;;4.10;;
6282;SDS011;3174;53.486;9.568;2023-06-24T04:57:28;9.67;;;6.20;;
6282;SDS011;3174;53.486;9.568;2023-06-24T04:59:57;6.67;;;4.70;;
6282;SDS011;3174;53.486;9.568;2023-06-24T05:02:25;10.77;;;5.63;;
6282;SDS011;3174;53.486;9.568;2023-06-24T05:04:53;10.87;;;7.23;;
6282;SDS011;3174;53.486;9.568;2023-06-24T05:07:22;15.40;;;7.90;;
6282;SDS011;3174;53.486;9.568;2023-06-24T05:09:50;7.77;;;5.57;;
6282;SDS011;3174;53.486;9.568;2023-06-24T05:12:18;16.10;;;8.80;;
6282;SDS011;3174;53.486;9.568;2023-06-24T05:14:50;15.57;;;7.07;;
6282;SDS011;3174;53.486;9.568;2023-06-24T05:17:19;13.83;;;8.23;;
6282;SDS011;3174;53.486;9.568;2023-06-24T05:19:47;9.50;;;5.10;;
6282;SDS011;3174;53.486;9.568;2023-06-24T05:22:16;13.23;;;7.80;;
6282;SDS011;3174;53.486;9.568;2023-06-24T05:24:44;11.20;;;7.07;;
6282;SDS011;3174;53.486;9.568;2023-06-24T05:27:12;7.97;;;5.00;;
6282;SDS011;3174;53.486;9.568;2023-06-24T05:29:40;6.30;;;4.83;;
6282;SDS011;3174;53.486;9.568;2023-06-24T05:32:09;12.27;;;7.30;;
6282;SDS011;3174;53.486;9.568;2023-06-24T05:34:37;13.90;;;8.37;;
6282;SDS011;3174;53.486;9.568;2023-06-24T05:37:05;13.57;;;6.83;;
6282;SDS011;3174;53.486;9.568;2023-06-24T05:39:33;5.93;;;4.80;;
6282;SDS011;3174;53.486;9.568;2023-06-24T05:42:01;10.47;;;6.73;;
6282;SDS011;3174;53.486;9.568;2023-06-24T05:44:29;13.07;;;8.00;;
6282;SDS011;3174;53.486;9.568;2023-06-24T05:46:57;14.67;;;8.13;;
6282;SDS011;3174;53.486;9.568;2023-06-24T05:49:27;7.63;;;5.27;;
6282;SDS011;3174;53.486;9.568;2023-06-24T05:51:55;8.87;;;6.03;;
6282;SDS011;3174;53.486;9.568;2023-06-24T05:54:23;12.67;;;8.10;;
6282;SDS011;3174;53.486;9.568;2023-06-24T05:56:51;14.43;;;7.97;;
6282;SDS011;3174;53.486;9.568;2023-06-24T05:59:19;10.77;;;6.83;;
6282;SDS011;3174;53.486;9.568;2023-06-24T06:01:47;13.80;;;8.10;;
6282;SDS011;3174;53.486;9.568;2023-06-24T06:04:15;12.73;;;7.80;;
6282;SDS011;3174;53.486;9.568;2023-06-24T06:06:45;7.83;;;5.33;;
6282;SDS011;3174;53.486;9.568;2023-06-24T06:09:13;13.27;;;8.17;;
6282;SDS011;3174;53.486;9.568;2023-06-24T06:11:41;12.43;;;7.53;;
6282;SDS011;3174;53.486;9.568;2023-06-24T06:14:09;10.47;;;6.87;;
6282;SDS011;3174;53.486;9.568;2023-06-24T06:16:37;9.97;;;6.40;;
6282;SDS011;3174;53.486;9.568;2023-06-24T06:19:05;10.37;;;6.87;;
6282;SDS011;3174;53.486;9.568;2023-06-24T06:21:33;10.13;;;6.03;;
6282;SDS011;3174;53.486;9.568;2023-06-24T06:24:02;8.50;;;6.07;;
6282;SDS011;3174;53.486;9.568;2023-06-24T06:26:31;12.83;;;6.37;;
6282;SDS011;3174;53.486;9.568;2023-06-24T06:28:59;10.47;;;6.57;;
6282;SDS011;3174;53.486;9.568;2023-06-24T06:31:27;8.23;;;5.97;;
6282;SDS011;3174;53.486;9.568;2023-06-24T06:33:55;9.20;;;6.40;;
6282;SDS011;3174;53.486;9.568;2023-06-24T06:36:23;9.10;;;5.93;;
6282;SDS011;3174;53.486;9.568;2023-06-24T06:38:50;7.33;;;4.63;;
6282;SDS011;3174;53.486;9.568;2023-06-24T06:41:20;5.23;;;3.67;;
6282;SDS011;3174;53.486;9.568;2023-06-24T06:43:51;10.47;;;5.73;;
6282;SDS011;3174;53.486;9.568;2023-06-24T06:46:19;8.93;;;5.57;;
6282;SDS011;3174;53.486;9.568;2023-06-24T06:48:47;9.60;;;5.53;;
6282;SDS011;3174;53.486;9.568;2023-06-24T06:51:15;8.27;;;5.60;;
6282;SDS011;3174;53.486;9.568;2023-06-24T06:53:45;8.73;;;5.13;;
6282;SDS011;3174;53.486;9.568;2023-06-24T06:56:16;9.43;;;4.67;;
6282;SDS011;3174;53.486;9.568;2023-06-24T06:58:46;9.93;;;5.87;;
6282;SDS011;3174;53.486;9.568;2023-06-24T07:01:14;7.73;;;4.80;;
6282;SDS011;3174;53.486;9.568;2023-06-24T07:03:42;8.70;;;5.03;;
6282;SDS011;3174;53.486;9.568;2023-06-24T07:06:10;9.73;;;5.83;;
6282;SDS011;3174;53.486;9.568;2023-06-24T07:08:38;5.10;;;3.80;;
6282;SDS011;3174;53.486;9.568;2023-06-24T07:11:06;5.67;;;4.37;;
6282;SDS011;3174;53.486;9.568;2023-06-24T07:13:34;7.27;;;4.40;;
6282;SDS011;3174;53.486;9.568;2023-06-24T07:16:04;5.57;;;3.83;;
6282;SDS011;3174;53.486;9.568;2023-06-24T07:18:32;5.47;;;3.50;;
6282;SDS011;3174;53.486;9.568;2023-06-24T07:21:00;5.57;;;3.93;;
6282;SDS011;3174;53.486;9.568;2023-06-24T07:23:28;6.67;;;4.10;;
6282;SDS011;3174;53.486;9.568;2023-06-24T07:25:56;7.40;;;4.60;;
6282;SDS011;3174;53.486;9.568;2023-06-24T07:28:29;5.30;;;3.73;;
6282;SDS011;3174;53.486;9.568;2023-06-24T07:30:57;6.13;;;3.70;;
6282;SDS011;3174;53.486;9.568;2023-06-24T07:33:26;4.57;;;3.00;;
6282;SDS011;3174;53.486;9.568;2023-06-24T07:35:57;10.17;;;5.07;;
6282;SDS011;3174;53.486;9.568;2023-06-24T07:38:25;3.97;;;3.23;;
6282;SDS011;3174;53.486;9.568;2023-06-24T07:40:52;4.20;;;3.20;;
6282;SDS011;3174;53.486;9.568;2023-06-24T07:43:20;5.70;;;3.63;;
6282;SDS011;3174;53.486;9.568;2023-06-24T07:45:48;7.47;;;4.10;;
6282;SDS011;3174;53.486;9.568;2023-06-24T07:48:16;8.47;;;3.90;;
6282;SDS011;3174;53.486;9.568;2023-06-24T07:50:46;4.97;;;3.50;;
6282;SDS011;3174;53.486;9.568;2023-06-24T07:53:14;5.87;;;3.80;;
6282;SDS011;3174;53.486;9.568;2023-06-24T07:55:42;4.20;;;3.20;;
6282;SDS011;3174;53.486;9.568;2023-06-24T07:58:10;6.50;;;3.50;;
6282;SDS011;3174;53.486;9.568;2023-06-24T08:00:38;6.07;;;3.67;;
6282;SDS011;3174;53.486;9.568;2023-06-24T08:03:06;4.03;;;2.93;;
6282;SDS011;3174;53.486;9.568;2023-06-24T08:05:34;4.20;;;3.20;;
6282;SDS011;3174;53.486;9.568;2023-06-24T08:08:04;3.87;;;3.37;;
6282;SDS011;3174;53.486;9.568;2023-06-24T08:10:32;5.37;;;3.50;;
6282;SDS011;3174;53.486;9.568;2023-06-24T08:13:00;4.10;;;3.40;;
6282;SDS011;3174;53.486;9.568;2023-06-24T08:15:28;6.73;;;3.20;;
6282;SDS011;3174;53.486;9.568;2023-06-24T08:17:56;3.97;;;3.37;;
6282;SDS011;3174;53.486;9.568;2023-06-24T08:20:24;7.23;;;3.80;;
6282;SDS011;3174;53.486;9.568;2023-06-24T08:22:53;6.23;;;3.60;;
6282;SDS011;3174;53.486;9.568;2023-06-24T08:25:22;5.17;;;3.53;;
6282;SDS011;3174;53.486;9.568;2023-06-24T08:27:50;6.13;;;3.80;;
6282;SDS011;3174;53.486;9.568;2023-06-24T08:30:18;6.00;;;3.57;;
6282;SDS011;3174;53.486;9.568;2023-06-24T08:32:46;5.53;;;3.50;;
6282;SDS011;3174;53.486;9.568;2023-06-24T08:35:14;7.97;;;4.30;;
6282;SDS011;3174;53.486;9.568;2023-06-24T08:37:42;6.63;;;4.80;;
6282;SDS011;3174;53.486;9.568;2023-06-24T08:40:11;5.23;;;3.90;;
6282;SDS011;3174;53.486;9.568;2023-06-24T08:42:40;5.83;;;3.83;;
6282;SDS011;3174;53.486;9.568;2023-06-24T08:45:09;8.13;;;4.80;;
6282;SDS011;3174;53.486;9.568;2023-06-24T08:47:37;5.37;;;4.33;;
6282;SDS011;3174;53.486;9.568;2023-06-24T08:50:07;6.37;;;4.37;;
6282;SDS011;3174;53.486;9.568;2023-06-24T08:52:43;7.07;;;4.47;;
6282;SDS011;3174;53.486;9.568;2023-06-24T08:55:13;5.23;;;4.30;;
6282;SDS011;3174;53.486;9.568;2023-06-24T08:57:45;6.53;;;4.63;;
6282;SDS011;3174;53.486;9.568;2023-06-24T09:00:14;4.43;;;3.42;;
6282;SDS011;3174;53.486;9.568;2023-06-24T09:02:42;6.20;;;4.57;;
6282;SDS011;3174;53.486;9.568;2023-06-24T09:05:10;6.72;;;3.90;;
6282;SDS011;3174;53.486;9.568;2023-06-24T09:07:38;7.13;;;4.35;;
6282;SDS011;3174;53.486;9.568;2023-06-24T09:10:06;5.78;;;4.05;;
6282;SDS011;3174;53.486;9.568;2023-06-24T09:12:35;5.47;;;3.90;;
6282;SDS011;3174;53.486;9.568;2023-06-24T09:15:05;7.05;;;4.53;;
6282;SDS011;3174;53.486;9.568;2023-06-24T09:17:33;4.97;;;3.63;;
6282;SDS011;3174;53.486;9.568;2023-06-24T09:20:12;6.22;;;4.18;;
6282;SDS011;3174;53.486;9.568;2023-06-24T09:22:40;4.13;;;3.35;;
6282;SDS011;3174;53.486;9.568;2023-06-24T09:25:08;4.30;;;3.70;;
6282;SDS011;3174;53.486;9.568;2023-06-24T09:27:36;6.68;;;4.05;;
6282;SDS011;3174;53.486;9.568;2023-06-24T09:30:17;3.78;;;3.08;;
6282;SDS011;3174;53.486;9.568;2023-06-24T09:32:46;5.68;;;4.10;;
6282;SDS011;3174;53.486;9.568;2023-06-24T09:35:16;6.40;;;4.68;;
6282;SDS011;3174;53.486;9.568;2023-06-24T09:37:49;6.68;;;4.53;;
6282;SDS011;3174;53.486;9.568;2023-06-24T09:40:18;7.25;;;4.30;;
6282;SDS011;3174;53.486;9.568;2023-06-24T09:42:50;5.72;;;4.07;;
6282;SDS011;3174;53.486;9.568;2023-06-24T09:45:21;5.05;;;3.28;;
6282;SDS011;3174;53.486;9.568;2023-06-24T09:47:49;6.32;;;3.78;;
6282;SDS011;3174;53.486;9.568;2023-06-24T09:50:17;4.50;;;3.20;;
6282;SDS011;3174;53.486;9.568;2023-06-24T09:52:46;5.00;;;3.88;;
6282;SDS011;3174;53.486;9.568;2023-06-24T09:55:16;5.60;;;3.28;;
6282;SDS011;3174;53.486;9.568;2023-06-24T09:57:45;6.20;;;4.00;;
6282;SDS011;3174;53.486;9.568;2023-06-24T10:00:15;5.78;;;4.00;;
6282;SDS011;3174;53.486;9.568;2023-06-24T10:02:47;6.45;;;2.92;;
6282;SDS011;3174;53.486;9.568;2023-06-24T10:05:15;5.05;;;3.40;;
6282;SDS011;3174;53.486;9.568;2023-06-24T10:07:44;6.90;;;4.47;;
6282;SDS011;3174;53.486;9.568;2023-06-24T10:10:12;4.40;;;3.75;;
6282;SDS011;3174;53.486;9.568;2023-06-24T10:12:40;3.95;;;3.28;;
6282;SDS011;3174;53.486;9.568;2023-06-24T10:15:08;4.22;;;3.30;;
6282;SDS011;3174;53.486;9.568;2023-06-24T10:17:37;5.63;;;3.65;;
6282;SDS011;3174;53.486;9.568;2023-06-24T10:20:07;3.17;;;2.42;;
6282;SDS011;3174;53.486;9.568;2023-06-24T10:22:36;4.85;;;3.25;;
6282;SDS011;3174;53.486;9.568;2023-06-24T10:25:05;4.25;;;3.35;;
6282;SDS011;3174;53.486;9.568;2023-06-24T10:27:38;3.53;;;2.90;;
6282;SDS011;3174;53.486;9.568;2023-06-24T10:30:06;6.05;;;3.05;;
6282;SDS011;3174;53.486;9.568;2023-06-24T10:32:41;2.63;;;2.40;;
6282;SDS011;3174;53.486;9.568;2023-06-24T10:35:22;4.72;;;2.85;;
6282;SDS011;3174;53.486;9.568;2023-06-24T10:37:55;4.82;;;3.33;;
6282;SDS011;3174;53.486;9.568;2023-06-24T10:40:36;4.93;;;2.95;;
6282;SDS011;3174;53.486;9.568;2023-06-24T10:45:56;5.63;;;4.15;;
6282;SDS011;3174;53.486;9.568;2023-06-24T10:48:25;4.55;;;3.17;;
6282;SDS011;3174;53.486;9.568;2023-06-24T10:50:55;7.47;;;3.60;;
6282;SDS011;3174;53.486;9.568;2023-06-24T10:53:23;3.17;;;2.55;;
6282;SDS011;3174;53.486;9.568;2023-06-24T10:55:51;3.25;;;2.40;;
6282;SDS011;3174;53.486;9.568;2023-06-24T10:58:19;3.58;;;2.83;;
6282;SDS011;3174;53.486;9.568;2023-06-24T11:00:47;4.90;;;3.00;;
6282;SDS011;3174;53.486;9.568;2023-06-24T11:03:17;3.33;;;2.95;;
6282;SDS011;3174;53.486;9.568;2023-06-24T11:05:46;5.47;;;2.83;;
6282;SDS011;3174;53.486;9.568;2023-06-24T11:08:17;4.35;;;3.10;;
6282;SDS011;3174;53.486;9.568;2023-06-24T11:10:45;5.07;;;3.00;;
6282;SDS011;3174;53.486;9.568;2023-06-24T11:13:14;6.95;;;3.25;;
6282;SDS011;3174;53.486;9.568;2023-06-24T11:15:42;4.75;;;2.83;;
6282;SDS011;3174;53.486;9.568;2023-06-24T11:18:10;4.40;;;3.08;;
6282;SDS011;3174;53.486;9.568;2023-06-24T11:20:38;4.95;;;2.95;;
6282;SDS011;3174;53.486;9.568;2023-06-24T11:23:07;2.70;;;2.42;;
6282;SDS011;3174;53.486;9.568;2023-06-24T11:25:42;4.55;;;2.90;;
6282;SDS011;3174;53.486;9.568;2023-06-24T11:28:14;3.78;;;2.63;;
6282;SDS011;3174;53.486;9.568;2023-06-24T11:30:47;2.90;;;2.60;;
6282;SDS011;3174;53.486;9.568;2023-06-24T11:33:25;4.28;;;2.97;;
6282;SDS011;3174;53.486;9.568;2023-06-24T11:35:54;5.03;;;3.00;;
6282;SDS011;3174;53.486;9.568;2023-06-24T11:38:22;3.30;;;2.85;;
6282;SDS011;3174;53.486;9.568;2023-06-24T11:40:52;5.60;;;3.17;;
6282;SDS011;3174;53.486;9.568;2023-06-24T11:43:20;6.18;;;2.65;;
6282;SDS011;3174;53.486;9.568;2023-06-24T11:45:48;3.83;;;3.08;;
6282;SDS011;3174;53.486;9.568;2023-06-24T11:48:16;4.20;;;3.35;;
6282;SDS011;3174;53.486;9.568;2023-06-24T11:50:44;5.20;;;2.72;;
6282;SDS011;3174;53.486;9.568;2023-06-24T11:53:12;3.35;;;2.40;;
6282;SDS011;3174;53.486;9.568;2023-06-24T11:55:40;3.75;;;2.83;;
6282;SDS011;3174;53.486;9.568;2023-06-24T11:58:09;4.30;;;3.10;;
6282;SDS011;3174;53.486;9.568;2023-06-24T12:00:48;5.13;;;2.97;;
6282;SDS011;3174;53.486;9.568;2023-06-24T12:03:22;4.75;;;2.70;;
6282;SDS011;3174;53.486;9.568;2023-06-24T12:05:50;4.18;;;3.10;;
6282;SDS011;3174;53.486;9.568;2023-06-24T12:08:18;3.28;;;2.55;;
6282;SDS011;3174;53.486;9.568;2023-06-24T12:10:46;4.60;;;2.38;;
6282;SDS011;3174;53.486;9.568;2023-06-24T12:13:15;2.95;;;2.60;;
6282;SDS011;3174;53.486;9.568;2023-06-24T12:15:43;5.63;;;3.20;;
6282;SDS011;3174;53.486;9.568;2023-06-24T12:18:12;6.10;;;3.03;;
6282;SDS011;3174;53.486;9.568;2023-06-24T12:20:40;3.55;;;2.97;;
6282;SDS011;3174;53.486;9.568;2023-06-24T12:23:10;4.63;;;2.33;;
6282;SDS011;3174;53.486;9.568;2023-06-24T12:25:38;5.82;;;2.97;;
6282;SDS011;3174;53.486;9.568;2023-06-24T12:28:06;7.07;;;3.38;;
6282;SDS011;3174;53.486;9.568;2023-06-24T12:30:35;5.22;;;3.45;;
6282;SDS011;3174;53.486;9.568;2023-06-24T12:33:04;4.45;;;3.10;;
6282;SDS011;3174;53.486;9.568;2023-06-24T12:35:35;4.22;;;3.00;;
6282;SDS011;3174;53.486;9.568;2023-06-24T12:38:03;4.07;;;2.67;;
6282;SDS011;3174;53.486;9.568;2023-06-24T12:40:31;5.68;;;3.28;;
6282;SDS011;3174;53.486;9.568;2023-06-24T12:42:59;3.50;;;2.88;;
6282;SDS011;3174;53.486;9.568;2023-06-24T12:45:28;3.28;;;2.88;;
6282;SDS011;3174;53.486;9.568;2023-06-24T12:47:57;3.55;;;2.95;;
6282;SDS011;3174;53.486;9.568;2023-06-24T12:50:25;4.15;;;2.40;;
6282;SDS011;3174;53.486;9.568;2023-06-24T12:52:58;3.50;;;2.42;;
6282;SDS011;3174;53.486;9.568;2023-06-24T12:55:26;3.00;;;2.65;;
6282;SDS011;3174;53.486;9.568;2023-06-24T12:57:54;2.95;;;2.47;;
6282;SDS011;3174;53.486;9.568;2023-06-24T13:00:22;3.72;;;2.78;;
6282;SDS011;3174;53.486;9.568;2023-06-24T13:02:51;3.45;;;2.90;;
6282;SDS011;3174;53.486;9.568;2023-06-24T13:05:20;5.38;;;4.00;;
6282;SDS011;3174;53.486;9.568;2023-06-24T13:07:48;3.83;;;2.75;;
6282;SDS011;3174;53.486;9.568;2023-06-24T13:10:16;3.92;;;3.00;;
6282;SDS011;3174;53.486;9.568;2023-06-24T13:12:44;3.72;;;2.67;;
6282;SDS011;3174;53.486;9.568;2023-06-24T13:15:14;5.05;;;3.10;;
6282;SDS011;3174;53.486;9.568;2023-06-24T13:17:42;2.72;;;2.45;;
6282;SDS011;3174;53.486;9.568;2023-06-24T13:20:11;4.28;;;2.95;;
6282;SDS011;3174;53.486;9.568;2023-06-24T13:22:40;6.70;;;3.55;;
6282;SDS011;3174;53.486;9.568;2023-06-24T13:25:08;5.05;;;3.25;;
6282;SDS011;3174;53.486;9.568;2023-06-24T13:27:36;3.45;;;2.55;;
6282;SDS011;3174;53.486;9.568;2023-06-24T13:30:07;5.43;;;2.90;;
6282;SDS011;3174;53.486;9.568;2023-06-24T13:32:36;4.57;;;3.05;;
6282;SDS011;3174;53.486;9.568;2023-06-24T13:35:04;4.95;;;2.97;;
6282;SDS011;3174;53.486;9.568;2023-06-24T13:37:33;5.32;;;2.80;;
6282;SDS011;3174;53.486;9.568;2023-06-24T13:40:03;3.13;;;2.28;;
6282;SDS011;3174;53.486;9.568;2023-06-24T13:42:32;3.90;;;2.83;;
6282;SDS011;3174;53.486;9.568;2023-06-24T13:45:00;3.33;;;2.80;;
6282;SDS011;3174;53.486;9.568;2023-06-24T13:47:28;6.10;;;3.03;;
6282;SDS011;3174;53.486;9.568;2023-06-24T13:49:56;5.00;;;3.10;;
6282;SDS011;3174;53.486;9.568;2023-06-24T13:52:25;4.57;;;2.53;;
6282;SDS011;3174;53.486;9.568;2023-06-24T13:54:53;3.10;;;2.70;;
6282;SDS011;3174;53.486;9.568;2023-06-24T13:57:22;3.25;;;2.65;;
6282;SDS011;3174;53.486;9.568;2023-06-24T13:59:50;3.67;;;3.03;;
6282;SDS011;3174;53.486;9.568;2023-06-24T14:02:18;3.00;;;2.70;;
6282;SDS011;3174;53.486;9.568;2023-06-24T14:04:46;6.95;;;2.78;;
6282;SDS011;3174;53.486;9.568;2023-06-24T14:07:15;3.35;;;2.72;;
6282;SDS011;3174;53.486;9.568;2023-06-24T14:09:43;2.50;;;2.30;;
6282;SDS011;3174;53.486;9.568;2023-06-24T14:12:11;2.92;;;2.33;;
6282;SDS011;3174;53.486;9.568;2023-06-24T14:14:41;3.75;;;2.60;;
6282;SDS011;3174;53.486;9.568;2023-06-24T14:17:09;4.03;;;2.42;;
6282;SDS011;3174;53.486;9.568;2023-06-24T14:19:38;4.72;;;2.70;;
6282;SDS011;3174;53.486;9.568;2023-06-24T14:22:07;4.90;;;2.90;;
6282;SDS011;3174;53.486;9.568;2023-06-24T14:24:35;2.58;;;2.38;;
6282;SDS011;3174;53.486;9.568;2023-06-24T14:27:04;2.97;;;2.20;;
6282;SDS011;3174;53.486;9.568;2023-06-24T14:29:33;4.05;;;2.33;;
6282;SDS011;3174;53.486;9.568;2023-06-24T14:32:03;3.38;;;2.70;;
6282;SDS011;3174;53.486;9.568;2023-06-24T14:34:32;3.80;;;2.85;;
6282;SDS011;3174;53.486;9.568;2023-06-24T14:37:00;6.05;;;2.65;;
6282;SDS011;3174;53.486;9.568;2023-06-24T14:39:28;6.38;;;3.00;;
6282;SDS011;3174;53.486;9.568;2023-06-24T14:41:56;5.40;;;2.80;;
6282;SDS011;3174;53.486;9.568;2023-06-24T14:44:24;4.38;;;2.72;;
6282;SDS011;3174;53.486;9.568;2023-06-24T14:46:52;3.83;;;3.20;;
6282;SDS011;3174;53.486;9.568;2023-06-24T14:49:22;3.78;;;2.80;;
6282;SDS011;3174;53.486;9.568;2023-06-24T14:51:51;4.07;;;3.00;;
6282;SDS011;3174;53.486;9.568;2023-06-24T14:54:19;3.85;;;2.80;;
6282;SDS011;3174;53.486;9.568;2023-06-24T14:56:47;3.88;;;3.05;;
6282;SDS011;3174;53.486;9.568;2023-06-24T14:59:15;3.95;;;2.65;;
6282;SDS011;3174;53.486;9.568;2023-06-24T15:01:43;5.68;;;2.90;;
6282;SDS011;3174;53.486;9.568;2023-06-24T15:04:11;5.68;;;2.88;;
6282;SDS011;3174;53.486;9.568;2023-06-24T15:06:40;4.70;;;2.60;;
6282;SDS011;3174;53.486;9.568;2023-06-24T15:09:08;3.70;;;2.58;;
6282;SDS011;3174;53.486;9.568;2023-06-24T15:11:36;3.08;;;2.72;;
6282;SDS011;3174;53.486;9.568;2023-06-24T15:14:04;4.22;;;2.60;;
6282;SDS011;3174;53.486;9.568;2023-06-24T15:16:32;3.83;;;2.65;;
6282;SDS011;3174;53.486;9.568;2023-06-24T15:19:00;3.88;;;2.92;;
6282;SDS011;3174;53.486;9.568;2023-06-24T15:21:28;3.15;;;2.47;;
6282;SDS011;3174;53.486;9.568;2023-06-24T15:24:04;2.75;;;2.55;;
6282;SDS011;3174;53.486;9.568;2023-06-24T15:26:32;2.70;;;2.30;;
6282;SDS011;3174;53.486;9.568;2023-06-24T15:29:00;4.05;;;2.92;;
6282;SDS011;3174;53.486;9.568;2023-06-24T15:31:28;4.47;;;2.97;;